Time;durP1;ratioP1;P1;durP2;ratioP2;P2;SDS_P1;SDS_P2;PMS_P1;PMS_P2;Temp;Humidity;BMP_temperature;BMP_pressure;BME280_temperature;BME280_humidity;BME280_pressure;Samples;Min_cycle;Max_cycle;Signal;HPM_P1;HPM_P2
2022/04/06 00:01:52;;;;;;;5.55;4.20;;;8.90;99.90;;;7.91;88.70;96703.53;5050435;28;21080;-78
2022/04/06 00:04:18;;;;;;;6.97;4.50;;;8.90;99.90;;;7.92;88.79;96701.69;5050919;28;20424;-77
2022/04/06 00:06:44;;;;;;;4.90;4.40;;;8.90;99.90;;;7.90;88.19;96693.22;5050902;28;20883;-77
2022/04/06 00:09:10;;;;;;;5.68;4.47;;;8.90;99.90;;;7.92;88.63;96697.22;5050747;28;20393;-78
2022/04/06 00:11:36;;;;;;;6.37;4.60;;;9.00;99.90;;;7.92;88.12;96691.13;5050437;28;20419;-77
2022/04/06 00:14:02;;;;;;;7.25;5.18;;;8.90;99.90;;;7.86;86.03;96687.69;5050726;28;20499;-77
2022/04/06 00:16:29;;;;;;;7.75;5.55;;;8.90;99.90;;;7.90;86.32;96688.75;5050760;28;20405;-78
2022/04/06 00:18:56;;;;;;;5.45;4.53;;;8.90;99.90;;;7.93;87.48;96679.56;5050635;28;20405;-78
2022/04/06 00:21:25;;;;;;;7.68;5.10;;;9.00;99.90;;;7.94;87.88;96691.69;5050259;28;20465;-76
2022/04/06 00:23:51;;;;;;;6.35;5.22;;;9.00;99.90;;;7.92;87.00;96672.69;5050595;28;20493;-77
2022/04/06 00:26:16;;;;;;;7.45;5.30;;;8.90;99.90;;;7.93;85.64;96675.09;5049978;28;20504;-78
2022/04/06 00:28:42;;;;;;;7.47;5.43;;;8.90;99.90;;;7.91;85.73;96674.53;5049731;28;20401;-78
2022/04/06 00:31:08;;;;;;;7.63;5.20;;;9.00;99.90;;;7.95;85.68;96673.00;5049560;28;20432;-76
2022/04/06 00:33:35;;;;;;;5.95;4.78;;;9.00;99.90;;;7.96;86.50;96674.59;5050351;28;20413;-77
2022/04/06 00:36:01;;;;;;;6.30;4.65;;;9.00;99.90;;;7.94;86.46;96666.13;5050410;28;20740;-76
2022/04/06 00:38:27;;;;;;;6.80;5.13;;;9.00;99.90;;;7.90;85.57;96665.03;5050373;28;20399;-78
2022/04/06 00:40:53;;;;;;;6.22;5.00;;;9.00;99.90;;;7.94;85.93;96667.97;5049939;28;20405;-77
2022/04/06 00:43:19;;;;;;;7.53;5.57;;;9.00;99.90;;;7.93;85.85;96664.53;5049934;28;20413;-78
2022/04/06 00:45:45;;;;;;;8.85;5.13;;;9.00;99.90;;;7.93;86.29;96666.38;5065862;28;20488;-78
2022/04/06 00:48:11;;;;;;;6.30;5.00;;;8.90;99.90;;;7.88;85.67;96659.25;5054283;28;20405;-77
2022/04/06 00:50:41;;;;;;;7.20;5.55;;;8.90;99.90;;;7.92;85.48;96657.69;5053925;28;20504;-78
2022/04/06 00:53:07;;;;;;;7.28;4.75;;;8.90;99.90;;;7.87;84.07;96656.84;5054642;28;20432;-77
2022/04/06 00:55:35;;;;;;;6.25;5.03;;;8.90;99.90;;;7.86;84.11;96648.16;5054635;28;20884;-77
2022/04/06 00:58:02;;;;;;;7.25;5.13;;;8.90;99.90;;;7.89;85.18;96652.94;5054091;28;20410;-78
2022/04/06 01:00:29;;;;;;;6.93;5.13;;;8.90;99.90;;;7.88;84.39;96648.72;5053649;28;20408;-78
2022/04/06 01:02:56;;;;;;;7.70;5.40;;;8.90;99.90;;;7.88;84.53;96653.19;5054186;28;20409;-78
2022/04/06 01:05:23;;;;;;;7.57;5.25;;;8.90;99.90;;;7.87;84.49;96647.13;5069545;28;20412;-78
2022/04/06 01:07:53;;;;;;;5.55;4.72;;;8.90;99.90;;;7.91;85.95;96642.13;5053945;28;20448;-77
2022/04/06 01:10:19;;;;;;;6.28;5.22;;;8.90;99.90;;;7.87;84.24;96644.47;5053511;28;20460;-78
2022/04/06 01:12:46;;;;;;;5.95;4.72;;;8.90;99.90;;;7.90;85.34;96636.06;5053882;28;21002;-77
2022/04/06 01:15:13;;;;;;;6.00;4.60;;;8.90;99.90;;;7.92;85.66;96638.44;5053867;28;20890;-77
2022/04/06 01:17:39;;;;;;;5.75;4.00;;;8.90;99.90;;;7.93;86.17;96645.31;5069112;28;20429;-78
2022/04/06 01:20:07;;;;;;;6.00;4.13;;;9.00;99.90;;;7.92;86.90;96639.22;5053486;28;20423;-78
2022/04/06 01:22:35;;;;;;;6.00;4.47;;;9.00;99.90;;;7.93;86.71;96640.81;5068848;28;20410;-77
2022/04/06 01:25:03;;;;;;;4.93;4.20;;;9.00;99.90;;;7.92;86.98;96641.06;5053695;28;20588;-77
2022/04/06 01:27:29;;;;;;;5.80;4.32;;;8.90;99.90;;;7.92;87.20;96631.34;5053723;28;20409;-77
2022/04/06 01:29:55;;;;;;;6.63;4.60;;;9.00;99.90;;;7.92;87.04;96633.97;5053435;28;20755;-77
2022/04/06 01:32:24;;;;;;;7.03;4.40;;;9.00;99.90;;;7.88;86.67;96634.72;5053196;28;20417;-77
2022/04/06 01:34:53;;;;;;;7.72;4.93;;;8.90;99.90;;;7.91;86.59;96632.38;5053664;28;20449;-78
2022/04/06 01:37:19;;;;;;;8.93;5.18;;;8.90;99.90;;;7.88;85.88;96630.25;5053412;28;20401;-77
2022/04/06 01:39:48;;;;;;;5.80;4.55;;;8.90;99.90;;;7.92;87.01;96628.69;5053403;28;20988;-77
2022/04/06 01:42:17;;;;;;;5.32;4.38;;;9.00;99.90;;;7.92;87.38;96633.97;5053232;28;20904;-77
2022/04/06 01:44:45;;;;;;;8.15;5.18;;;9.00;99.90;;;7.92;86.77;96633.16;5062172;28;20492;-77
2022/04/06 01:47:12;;;;;;;8.15;5.30;;;8.90;99.90;;;7.91;86.14;96623.66;5053538;28;20743;-77
2022/04/06 01:52:23;;;;;;;8.03;5.10;;;8.90;99.90;;;7.94;86.60;96629.25;5052839;28;20572;-77
2022/04/06 01:54:53;;;;;;;6.13;5.00;;;9.00;99.90;;;7.94;86.57;96629.25;5053302;28;20971;-77
2022/04/06 01:57:20;;;;;;;6.72;5.03;;;9.00;99.90;;;7.93;85.83;96626.84;5068337;28;20449;-77
2022/04/06 01:59:47;;;;;;;7.97;5.13;;;9.00;99.90;;;7.95;86.86;96622.94;5053007;28;20767;-77
2022/04/06 02:02:16;;;;;;;6.90;4.90;;;9.00;99.90;;;7.96;86.65;96624.53;5052748;28;20961;-77
2022/04/06 02:04:42;;;;;;;7.47;5.68;;;9.00;99.90;;;7.95;86.92;96612.41;5053065;28;20600;-78
2022/04/06 02:07:11;;;;;;;8.32;5.20;;;9.00;99.90;;;7.94;86.11;96617.91;5053053;28;20492;-77
2022/04/06 02:09:39;;;;;;;6.03;4.88;;;9.00;99.90;;;7.96;86.82;96621.88;5052660;28;20480;-77
2022/04/06 02:12:09;;;;;;;8.45;6.07;;;9.00;99.90;;;7.91;85.45;96619.19;5052384;28;20424;-77
2022/04/06 02:14:35;;;;;;;6.47;5.10;;;9.00;99.90;;;7.93;84.82;96611.84;5052731;28;20450;-77
2022/04/06 02:17:03;;;;;;;7.20;5.20;;;9.00;99.90;;;7.92;84.82;96610.25;5052678;28;20770;-77
2022/04/06 02:19:29;;;;;;;6.88;5.03;;;9.00;99.90;;;7.95;85.67;96615.03;5052659;28;20993;-77
2022/04/06 02:21:55;;;;;;;7.45;5.25;;;9.00;99.90;;;7.92;85.36;96614.72;5052366;28;20421;-77
2022/04/06 02:24:21;;;;;;;7.72;5.75;;;9.00;99.90;;;7.92;84.70;96614.72;5052776;28;20405;-77
2022/04/06 02:26:47;;;;;;;6.68;5.03;;;9.00;99.90;;;7.96;84.98;96613.19;5052722;28;20401;-77
2022/04/06 02:29:15;;;;;;;6.93;5.67;;;9.00;99.90;;;7.95;85.58;96612.41;5052553;28;20752;-78
2022/04/06 02:31:42;;;;;;;7.63;5.40;;;9.00;99.90;;;7.96;84.67;96606.06;5051746;28;20425;-77
2022/04/06 02:34:08;;;;;;;8.05;5.38;;;9.00;99.90;;;8.00;84.14;96606.34;5052652;28;20766;-77
2022/04/06 02:36:34;;;;;;;7.27;5.10;;;9.00;99.90;;;8.01;83.98;96605.31;5052546;28;20397;-77
2022/04/06 02:39:00;;;;;;;7.07;5.07;;;9.10;99.90;;;8.02;84.89;96604.25;5052286;28;20409;-77
2022/04/06 02:41:26;;;;;;;6.80;5.18;;;9.10;99.90;;;8.01;84.48;96600.03;5052034;28;20425;-78
2022/04/06 02:43:52;;;;;;;5.53;4.57;;;9.00;99.90;;;7.99;83.86;96602.91;5052415;28;20463;-77
2022/04/06 02:46:20;;;;;;;7.15;5.45;;;9.00;99.90;;;7.99;83.45;96604.75;5052217;28;20402;-78
2022/04/06 02:48:46;;;;;;;6.68;4.82;;;9.00;99.90;;;8.02;84.75;96594.53;5052096;28;20489;-78
2022/04/06 02:51:12;;;;;;;9.48;4.75;;;9.00;99.90;;;8.01;84.20;96600.03;5051707;28;20404;-77
2022/04/06 02:53:38;;;;;;;5.40;4.50;;;9.00;99.90;;;8.01;84.67;96600.03;5052078;28;20782;-77
2022/04/06 02:56:04;;;;;;;5.95;4.70;;;9.00;99.90;;;8.01;85.00;96592.13;5052028;28;20493;-77
2022/04/06 02:58:30;;;;;;;6.72;4.55;;;9.00;99.90;;;7.98;84.35;96603.97;5051223;28;20472;-78
2022/04/06 03:00:56;;;;;;;5.47;4.55;;;9.00;99.90;;;7.96;84.37;96587.63;5051260;28;20402;-77
2022/04/06 03:03:24;;;;;;;6.47;4.78;;;9.00;99.90;;;7.95;83.90;96591.31;5051956;28;20402;-77
2022/04/06 03:05:50;;;;;;;9.43;5.13;;;9.00;99.90;;;7.97;84.38;96583.94;5051875;28;20480;-77
2022/04/06 03:08:16;;;;;;;6.20;4.80;;;9.00;99.90;;;7.97;84.74;96581.28;5050202;28;20467;-77
2022/04/06 03:10:42;;;;;;;5.05;4.20;;;9.00;99.90;;;7.95;84.66;96579.97;5050824;28;20992;-77
2022/04/06 03:13:08;;;;;;;5.45;4.30;;;9.00;99.90;;;7.95;85.16;96577.34;5051709;28;20413;-77
2022/04/06 03:15:34;;;;;;;6.28;4.80;;;9.00;99.90;;;7.92;84.73;96575.19;5051615;28;20397;-77
2022/04/06 03:18:00;;;;;;;6.40;4.38;;;9.00;99.90;;;7.91;85.32;96574.41;5051435;28;20770;-77
2022/04/06 03:20:27;;;;;;;7.80;4.65;;;9.00;99.90;;;7.90;85.12;96559.63;5051180;28;20711;-77
2022/04/06 03:22:53;;;;;;;7.50;5.05;;;9.00;99.90;;;7.88;84.32;96556.47;5051649;28;20428;-77
2022/04/06 03:25:20;;;;;;;6.65;4.45;;;9.00;99.90;;;7.91;85.00;96566.50;5051481;28;20922;-77
2022/04/06 03:27:46;;;;;;;8.30;5.13;;;8.90;99.90;;;7.89;84.13;96557.28;5051314;28;20404;-77
2022/04/06 03:30:12;;;;;;;6.67;4.90;;;8.90;99.90;;;7.90;84.19;96554.38;5050765;28;20393;-77
2022/04/06 03:32:38;;;;;;;8.38;5.22;;;8.90;99.90;;;7.91;84.83;96555.97;5055564;28;20484;-77
2022/04/06 03:35:06;;;;;;;8.43;5.03;;;8.90;99.90;;;7.91;84.23;96547.25;5053863;28;20401;-76
2022/04/06 03:37:33;;;;;;;5.43;4.68;;;9.00;99.90;;;7.89;84.85;96552.81;5051147;28;20405;-77
2022/04/06 03:40:01;;;;;;;5.40;4.65;;;9.00;99.90;;;7.91;85.24;96549.91;5051170;28;20447;-76
2022/04/06 03:42:27;;;;;;;6.80;4.32;;;8.90;99.90;;;7.86;84.86;96544.59;5051072;28;20480;-76
2022/04/06 03:44:53;;;;;;;6.28;4.38;;;8.90;99.90;;;7.82;84.52;96546.94;5051266;28;20401;-77
2022/04/06 03:47:19;;;;;;;4.60;4.10;;;8.90;99.90;;;7.76;85.38;96547.94;5050962;28;20420;-76
2022/04/06 03:49:45;;;;;;;7.37;4.87;;;8.80;99.90;;;7.70;84.58;96546.34;5051077;28;20902;-77
2022/04/06 03:52:11;;;;;;;6.40;4.55;;;8.80;99.90;;;7.67;85.27;96552.09;5050695;28;20914;-76
2022/04/06 03:54:38;;;;;;;5.32;4.22;;;8.70;99.90;;;7.63;85.95;96551.81;5050986;28;20393;-76
2022/04/06 03:57:04;;;;;;;6.57;4.45;;;8.70;99.90;;;7.62;85.85;96546.81;5050032;28;20417;-77
2022/04/06 03:59:30;;;;;;;6.18;4.35;;;8.70;99.90;;;7.59;85.63;96549.97;5049750;28;20497;-77
2022/04/06 04:01:57;;;;;;;6.53;4.37;;;8.60;99.90;;;7.60;85.55;96544.41;5085531;22;20520;-86
2022/04/06 04:04:23;;;;;;;5.72;4.40;;;8.70;99.90;;;7.64;86.40;96552.63;5086780;28;20463;-84
2022/04/06 04:06:49;;;;;;;5.82;4.43;;;8.70;99.90;;;7.66;86.46;96540.00;5073548;28;20765;-85
2022/04/06 04:09:15;;;;;;;7.00;4.63;;;8.70;99.90;;;7.64;86.44;96539.44;5106273;28;20583;-85
2022/04/06 04:11:42;;;;;;;5.05;3.70;;;8.70;99.90;;;7.65;87.10;96533.13;5090761;28;20418;-85
2022/04/06 04:14:08;;;;;;;6.22;4.00;;;8.70;99.90;;;7.61;86.18;96537.31;5106063;28;20414;-85
2022/04/06 04:16:34;;;;;;;4.75;4.00;;;8.60;99.90;;;7.62;86.64;96533.63;5086209;28;20392;-86
2022/04/06 04:19:00;;;;;;;5.47;3.90;;;8.60;99.90;;;7.62;87.09;96538.91;5078652;28;20482;-85
2022/04/06 04:21:32;;;;;;;6.37;4.90;;;8.60;99.90;;;7.61;86.98;96537.31;5056457;28;20411;-86
2022/04/06 04:23:58;;;;;;;4.75;4.20;;;8.60;99.90;;;7.62;87.45;96537.06;5075789;28;20456;-86
2022/04/06 04:26:24;;;;;;;6.37;4.33;;;8.60;99.90;;;7.62;86.78;96537.06;5081275;28;20947;-86
2022/04/06 04:28:51;;;;;;;5.57;4.15;;;8.60;99.90;;;7.63;87.53;96537.84;5054059;28;20423;-87
2022/04/06 04:31:17;;;;;;;7.25;4.57;;;8.70;99.90;;;7.62;87.46;96525.72;5077161;28;20420;-86
2022/04/06 04:33:43;;;;;;;6.47;4.78;;;8.60;99.90;;;7.61;87.32;96539.94;5082709;28;20403;-84
2022/04/06 04:36:09;;;;;;;6.10;4.47;;;8.60;99.90;;;7.62;87.71;96541.53;5084855;28;20964;-85
2022/04/06 04:38:36;;;;;;;5.35;4.22;;;8.60;99.90;;;7.60;87.99;96539.16;5071065;28;20525;-85
2022/04/06 04:41:03;;;;;;;5.07;3.92;;;8.70;99.90;;;7.56;88.14;96527.53;5070909;28;20400;-84
2022/04/06 04:43:29;;;;;;;5.70;4.20;;;8.60;99.90;;;7.51;88.07;96535.41;5066941;28;20501;-84
2022/04/06 04:45:56;;;;;;;5.95;4.20;;;8.60;99.90;;;7.48;88.14;96530.66;5080016;28;20451;-83
2022/04/06 04:48:22;;;;;;;6.53;4.63;;;8.50;99.90;;;7.47;87.21;96528.25;5077735;28;20392;-84
2022/04/06 04:50:48;;;;;;;6.50;5.00;;;8.50;99.90;;;7.44;87.65;96532.19;5069433;28;20427;-84
2022/04/06 04:53:14;;;;;;;7.47;5.00;;;8.50;99.90;;;7.45;87.32;96527.69;5067657;28;20419;-78
2022/04/06 04:55:41;;;;;;;5.93;4.40;;;8.50;99.90;;;7.46;88.27;96526.66;5070343;28;20409;-78
2022/04/06 04:58:07;;;;;;;6.72;4.32;;;8.50;99.90;;;7.47;88.29;96526.41;5070833;28;20401;-78
2022/04/06 05:00:33;;;;;;;6.45;4.32;;;8.50;99.90;;;7.38;87.03;96523.44;5072604;28;20432;-79
2022/04/06 05:03:02;;;;;;;8.50;4.55;;;8.40;99.90;;;7.43;87.97;96520.09;5072694;28;20900;-79
2022/04/06 05:05:29;;;;;;;6.07;4.22;;;8.50;99.90;;;7.47;88.79;96520.34;5072917;28;20460;-78
2022/04/06 05:07:58;;;;;;;4.82;3.85;;;8.50;99.90;;;7.49;88.81;96518.28;5064784;28;20915;-77
2022/04/06 05:10:25;;;;;;;4.78;4.07;;;8.50;99.90;;;7.52;89.20;96520.41;5075319;28;20446;-77
2022/04/06 05:12:51;;;;;;;5.35;3.85;;;8.60;99.90;;;7.53;89.28;96517.50;5081552;28;20406;-77
2022/04/06 05:15:17;;;;;;;4.57;3.80;;;8.60;99.90;;;7.55;89.35;96519.88;5080207;28;20414;-77
2022/04/06 05:17:42;;;;;;;4.30;3.50;;;8.60;99.90;;;7.56;89.67;96529.38;5071005;28;20421;-77
2022/04/06 05:20:11;;;;;;;5.10;4.05;;;8.60;99.90;;;7.53;89.00;96521.97;5080744;28;20553;-77
2022/04/06 05:22:37;;;;;;;4.93;3.95;;;8.60;99.90;;;7.55;89.02;96519.88;5081428;28;20430;-77
2022/04/06 05:25:07;;;;;;;6.78;4.40;;;8.60;99.90;;;7.56;89.18;96532.81;5081394;28;20788;-77
2022/04/06 05:27:42;;;;;;;5.13;3.88;;;8.60;99.90;;;7.58;89.49;96520.19;5072650;28;20495;-77
2022/04/06 05:30:10;;;;;;;5.97;3.70;;;8.60;99.90;;;7.58;89.30;96517.56;5089009;28;20446;-77
2022/04/06 05:32:36;;;;;;;5.90;3.72;;;8.60;99.90;;;7.59;89.37;96510.47;5079373;28;20554;-77
2022/04/06 05:35:02;;;;;;;4.93;3.90;;;8.60;99.90;;;7.60;89.45;96520.72;5092272;28;20489;-77
2022/04/06 05:37:33;;;;;;;4.88;3.72;;;8.60;99.90;;;7.59;89.44;96507.81;5078493;28;20416;-78
2022/04/06 05:40:00;;;;;;;4.95;3.88;;;8.60;99.90;;;7.60;88.91;96512.00;5081502;28;20452;-77
2022/04/06 05:42:26;;;;;;;4.57;3.70;;;8.60;99.90;;;7.61;88.52;96506.50;5063937;28;20498;-78
2022/04/06 05:44:52;;;;;;;5.35;4.20;;;8.60;99.90;;;7.65;89.40;96519.97;5090792;28;20405;-75
2022/04/06 05:47:19;;;;;;;4.78;3.70;;;8.70;99.90;;;7.63;89.50;96514.94;5083353;28;20818;-77
2022/04/06 05:49:45;;;;;;;5.53;4.22;;;8.70;99.90;;;7.68;89.00;96512.34;5089512;28;20400;-81
2022/04/06 05:52:11;;;;;;;5.13;4.07;;;8.70;99.90;;;7.70;89.07;96510.25;5082878;28;20411;-76
2022/04/06 05:54:38;;;;;;;5.15;3.60;;;8.70;99.90;;;7.75;89.29;96512.91;5082633;28;20493;-76
2022/04/06 05:57:04;;;;;;;5.32;3.97;;;8.80;99.90;;;7.80;89.46;96517.44;5083577;28;20419;-76
2022/04/06 05:59:30;;;;;;;4.70;3.78;;;8.80;99.90;;;7.84;89.59;96512.44;5084669;28;20485;-76
2022/04/06 06:01:56;;;;;;;4.72;3.78;;;8.80;99.90;;;7.90;89.61;96508.78;5077470;28;20523;-78
2022/04/06 06:04:21;;;;;;;6.80;4.87;;;8.90;99.90;;;7.91;88.69;96515.63;5073637;28;20500;-76
2022/04/06 06:06:48;;;;;;;5.68;4.55;;;9.00;99.90;;;8.02;89.03;96518.09;5084476;28;20404;-76
2022/04/06 06:09:14;;;;;;;6.35;4.85;;;9.00;99.90;;;8.10;89.11;96522.09;5085033;28;20394;-78
2022/04/06 06:11:41;;;;;;;5.50;4.20;;;9.10;99.90;;;8.17;88.90;96514.75;5090984;28;20544;-77
2022/04/06 06:14:08;;;;;;;4.50;3.80;;;9.10;99.90;;;8.26;88.95;96515.03;5086995;28;20448;-76
2022/04/06 06:16:34;;;;;;;4.38;3.78;;;9.20;99.90;;;8.32;88.97;96514.84;5074663;28;20850;-78
2022/04/06 06:19:00;;;;;;;6.03;3.97;;;9.30;99.90;;;8.35;88.79;96514.31;5092814;28;20394;-78
2022/04/06 06:21:27;;;;;;;4.20;3.80;;;9.40;99.90;;;8.40;88.49;96513.56;5092362;28;20755;-77
2022/04/06 06:23:56;;;;;;;5.60;4.38;;;9.40;99.90;;;8.38;86.86;96510.38;5092900;28;20405;-77
2022/04/06 06:26:22;;;;;;;6.72;4.00;;;9.40;99.90;;;8.46;87.73;96512.50;5077599;28;20875;-76
2022/04/06 06:28:49;;;;;;;4.22;3.67;;;9.40;99.90;;;8.51;87.89;96509.88;5058216;28;20414;-78
2022/04/06 06:31:15;;;;;;;5.13;3.87;;;9.50;99.90;;;8.58;87.45;96515.69;5071435;28;20466;-76
2022/04/06 06:33:41;;;;;;;5.97;4.32;;;9.50;99.90;;;8.57;86.00;96518.63;5072239;28;20475;-78
2022/04/06 06:36:06;;;;;;;4.18;3.70;;;9.60;99.90;;;8.65;86.37;96513.63;5069366;28;20422;-77
2022/04/06 06:38:32;;;;;;;4.27;3.67;;;9.60;99.90;;;8.72;86.56;96516.03;5076350;28;20891;-77
2022/04/06 06:40:58;;;;;;;3.80;3.40;;;9.70;99.90;;;8.76;86.41;96515.25;5083699;28;20413;-77
2022/04/06 06:43:24;;;;;;;4.82;3.50;;;9.70;99.90;;;8.82;86.42;96513.41;5087104;28;20408;-77
2022/04/06 06:45:51;;;;;;;4.93;3.92;;;9.70;99.90;;;8.81;84.96;96519.72;5079346;28;20779;-77
2022/04/06 06:48:17;;;;;;;5.95;4.68;;;9.80;99.90;;;8.82;84.76;96508.13;5084059;28;20394;-77
2022/04/06 06:50:43;;;;;;;6.88;4.82;;;9.80;99.90;;;8.80;82.76;96513.66;5091747;28;20868;-76
2022/04/06 06:53:09;;;;;;;6.95;4.57;;;9.80;99.90;;;8.90;83.89;96518.16;5073874;28;20421;-77
2022/04/06 06:55:35;;;;;;;6.03;4.32;;;9.90;99.90;;;8.97;83.67;96510.00;5068717;28;20607;-78
2022/04/06 06:58:01;;;;;;;6.78;4.40;;;9.90;99.90;;;8.99;83.52;96507.88;5075316;28;20415;-78
2022/04/06 07:00:27;;;;;;;6.28;4.68;;;10.00;99.90;;;9.02;82.52;96515.28;5076003;28;20394;-78
2022/04/06 07:02:55;;;;;;;6.17;4.17;;;9.90;99.90;;;9.06;81.89;96519.00;5081034;28;20475;-78
2022/04/06 07:05:22;;;;;;;5.60;4.18;;;10.00;99.90;;;9.23;83.52;96516.91;5077513;28;20809;-80
2022/04/06 07:07:53;;;;;;;5.53;4.25;;;10.10;99.90;;;9.25;81.46;96512.91;5086057;28;20436;-80
2022/04/06 07:10:20;;;;;;;6.53;4.47;;;10.20;99.90;;;9.29;79.74;96506.06;5075433;28;20411;-78
2022/04/06 07:12:45;;;;;;;6.97;4.50;;;10.30;99.90;;;9.32;78.77;96504.75;5071907;28;20853;-80
2022/04/06 07:15:11;;;;;;;4.80;3.90;;;10.30;99.50;;;9.40;79.31;96504.22;5073129;28;20505;-80
2022/04/06 07:17:37;;;;;;;5.18;4.00;;;10.30;99.80;;;9.44;79.14;96502.63;5071192;28;20400;-79
2022/04/06 07:20:07;;;;;;;7.50;3.77;;;10.40;99.90;;;9.50;78.58;96498.13;5075915;28;20494;-79
2022/04/06 07:22:33;;;;;;;4.50;3.33;;;10.50;99.60;;;9.63;79.75;96490.47;5082389;28;20394;-79
2022/04/06 07:24:58;;;;;;;4.07;3.30;;;10.60;99.90;;;9.74;79.33;96493.88;5090742;28;20476;-79
2022/04/06 07:27:24;;;;;;;4.78;3.08;;;10.60;99.90;;;9.84;78.93;96491.22;5090621;28;20521;-78
2022/04/06 07:29:53;;;;;;;4.22;2.90;;;10.70;99.70;;;9.85;77.44;96492.03;5090535;28;20751;-79
2022/04/06 07:32:19;;;;;;;3.35;2.70;;;10.80;98.90;;;9.91;77.84;96490.94;5089628;28;20413;-79
2022/04/06 07:34:45;;;;;;;3.45;2.70;;;10.80;98.90;;;10.04;78.67;96495.66;5090680;28;20405;-79
2022/04/06 07:37:12;;;;;;;4.28;3.10;;;10.90;99.40;;;10.00;76.21;96489.31;5091664;28;20405;-79
2022/04/06 07:39:38;;;;;;;3.17;2.67;;;11.00;98.10;;;10.01;76.24;96486.41;5091248;28;20420;-78
2022/04/06 07:42:04;;;;;;;4.15;2.92;;;10.90;98.10;;;10.04;76.05;96488.53;5090889;28;20863;-78
2022/04/06 07:44:30;;;;;;;3.67;2.45;;;11.00;97.60;;;10.21;77.47;96482.97;5091426;28;20394;-79
2022/04/06 07:46:56;;;;;;;2.60;2.30;;;11.10;98.60;;;10.26;76.11;96493.50;5073246;28;20415;-79
2022/04/06 07:49:22;;;;;;;3.63;2.70;;;11.20;98.20;;;10.29;74.58;96486.91;5091215;28;20497;-79
2022/04/06 07:51:48;;;;;;;3.25;2.40;;;11.20;97.20;;;10.45;76.49;96483.88;5072622;28;20490;-78
2022/04/06 07:54:15;;;;;;;3.17;2.30;;;11.30;98.00;;;10.64;77.22;96488.56;5091347;28;20398;-78
2022/04/06 07:56:42;;;;;;;3.22;2.25;;;11.50;98.50;;;10.70;76.49;96482.97;5072891;28;20402;-78
2022/04/06 07:59:08;;;;;;;2.80;2.42;;;11.60;98.20;;;10.68;74.01;96487.75;5091095;28;20420;-79
2022/04/06 08:01:34;;;;;;;3.97;2.40;;;11.60;96.30;;;10.70;74.33;96484.84;5090431;28;20426;-79
2022/04/06 08:04:00;;;;;;;3.63;1.98;;;11.60;96.70;;;10.81;74.78;96484.50;5091093;28;20390;-79
2022/04/06 08:06:26;;;;;;;3.22;2.35;;;11.70;97.30;;;10.82;73.48;96483.44;5091044;28;20402;-79
2022/04/06 08:08:53;;;;;;;3.53;1.90;;;11.70;95.90;;;10.95;71.83;96482.03;5091060;28;20455;-79
2022/04/06 08:11:20;;;;;;;4.78;2.03;;;11.80;95.20;;;11.05;71.10;96481.94;5090458;28;20437;-79
2022/04/06 08:13:46;;;;;;;3.08;1.65;;;12.00;94.50;;;11.16;70.25;96480.81;5090802;28;20410;-79
2022/04/06 08:16:13;;;;;;;4.05;1.63;;;12.00;93.80;;;11.11;68.78;96486.16;5090836;28;20394;-79
2022/04/06 08:18:39;;;;;;;3.17;1.50;;;12.00;92.60;;;11.26;68.17;96495.88;5090836;28;20402;-79
2022/04/06 08:21:09;;;;;;;3.33;1.43;;;12.20;92.20;;;11.32;67.81;96486.00;5090263;28;20401;-79
2022/04/06 08:23:35;;;;;;;2.05;1.30;;;12.20;92.00;;;11.41;67.05;96484.34;5090912;28;20639;-79
2022/04/06 08:26:01;;;;;;;1.92;1.30;;;12.30;91.20;;;11.46;66.89;96473.69;5090789;28;20410;-79
2022/04/06 08:28:28;;;;;;;3.03;1.27;;;12.40;91.00;;;11.40;65.62;96478.25;5090885;28;20887;-79
2022/04/06 08:30:54;;;;;;;2.25;1.10;;;12.40;90.00;;;11.63;65.23;96476.72;5090230;28;20409;-79
2022/04/06 08:33:20;;;;;;;1.67;1.05;;;12.50;89.70;;;11.70;66.38;96473.75;5090505;28;20417;-79
2022/04/06 08:35:46;;;;;;;1.77;0.90;;;12.60;90.60;;;11.85;66.30;96477.06;5090637;28;20390;-79
2022/04/06 08:38:15;;;;;;;2.45;1.00;;;12.70;90.70;;;11.94;66.25;96472.75;5087860;28;20413;-79
2022/04/06 08:40:42;;;;;;;0.70;0.70;;;12.80;90.40;;;11.95;64.82;96478.84;5080568;28;20727;-78
2022/04/06 08:43:09;;;;;;;1.55;1.02;;;12.90;89.50;;;11.83;64.16;96475.75;5088505;28;20932;-79
2022/04/06 08:45:38;;;;;;;1.73;0.90;;;12.80;88.40;;;11.71;62.79;96475.34;5083392;28;20475;-78
2022/04/06 08:48:07;;;;;;;2.00;0.90;;;12.60;85.10;;;11.64;62.67;96480.97;5086806;28;20893;-83
2022/04/06 08:50:36;;;;;;;1.00;0.82;;;12.50;86.00;;;11.54;62.00;96484.50;5084629;28;20820;-76
2022/04/06 08:53:04;;;;;;;0.63;0.63;;;12.40;83.60;;;11.53;62.65;96479.47;5090286;28;20417;-77
2022/04/06 08:55:31;;;;;;;1.10;0.90;;;12.40;84.90;;;11.52;61.94;96472.56;5084169;28;20802;-78
2022/04/06 08:57:58;;;;;;;2.45;0.80;;;12.50;83.40;;;11.61;63.14;96478.84;5088283;28;20398;-78
2022/04/06 09:00:24;;;;;;;1.20;0.70;;;12.50;85.70;;;11.72;64.56;96469.75;5086747;28;20401;-77
2022/04/06 09:02:52;;;;;;;0.98;0.80;;;12.60;87.40;;;11.79;63.05;96472.09;5081604;28;20394;-76
2022/04/06 09:05:21;;;;;;;0.83;0.80;;;12.70;85.70;;;11.86;63.46;96469.91;5089975;28;20882;-76
2022/04/06 09:07:51;;;;;;;0.80;0.80;;;12.80;86.00;;;11.89;61.04;96462.16;5083836;28;20878;-77
2022/04/06 09:10:29;;;;;;;0.88;0.80;;;12.80;82.30;;;11.90;60.39;96462.97;5093920;28;20397;-77
2022/04/06 09:13:12;;;;;;;1.83;0.83;;;12.80;82.30;;;11.94;60.73;96469.28;5094269;28;20938;-77
2022/04/06 09:15:38;;;;;;;0.90;0.73;;;12.90;81.70;;;12.06;60.67;96464.38;5094291;28;20477;-77
2022/04/06 09:18:06;;;;;;;0.93;0.80;;;12.90;80.90;;;12.17;59.90;96462.41;5085215;28;20801;-75
2022/04/06 09:20:32;;;;;;;1.00;0.90;;;13.00;80.40;;;12.23;58.92;96464.72;5085245;28;20482;-76
2022/04/06 09:23:01;;;;;;;0.70;0.60;;;13.10;79.00;;;12.34;60.58;96466.16;5088359;28;20403;-75
2022/04/06 09:25:33;;;;;;;3.20;0.90;;;13.10;80.70;;;12.50;60.24;96458.78;5080353;28;20430;-79
2022/04/06 09:28:07;;;;;;;1.60;0.88;;;13.30;80.90;;;12.58;59.66;96473.28;5087676;28;20386;-76
2022/04/06 09:30:35;;;;;;;0.90;0.70;;;13.40;79.80;;;12.57;58.00;96453.91;5081455;28;20488;-75
2022/04/06 09:33:02;;;;;;;0.82;0.80;;;13.50;78.50;;;12.70;58.60;96461.19;5081581;28;20856;-75
2022/04/06 09:35:32;;;;;;;0.80;0.65;;;13.60;79.90;;;12.69;59.14;96462.28;5085850;28;20770;-76
2022/04/06 09:38:09;;;;;;;0.60;0.60;;;13.60;79.10;;;12.66;57.25;96452.22;5083842;28;20533;-75
2022/04/06 09:40:37;;;;;;;2.40;0.93;;;13.50;76.50;;;12.60;56.55;96449.91;5085225;28;20396;-75
2022/04/06 09:43:04;;;;;;;0.75;0.60;;;13.50;74.80;;;12.59;56.16;96443.03;5080511;28;20396;-74
2022/04/06 09:48:15;;;;;;;0.50;0.50;;;13.50;74.00;;;12.77;56.69;96440.38;5069935;28;20413;-75
2022/04/06 09:50:54;;;;;;;1.50;0.70;;;13.60;75.30;;;12.92;55.28;96436.72;5066762;28;20466;-76
2022/04/06 09:53:33;;;;;;;0.80;0.70;;;13.80;73.20;;;13.30;55.56;96436.69;5074085;28;20461;-75
2022/04/06 09:56:05;;;;;;;2.05;0.70;;;14.00;73.80;;;13.18;54.60;96447.75;5081095;28;20925;-75
2022/04/06 09:58:31;;;;;;;0.40;0.40;;;14.10;71.30;;;13.27;56.42;96423.97;5092022;28;20442;-75
2022/04/06 10:00:57;;;;;;;0.90;0.50;;;14.10;73.70;;;13.23;54.82;96430.97;5091239;28;20611;-74
2022/04/06 10:03:44;;;;;;;0.50;0.50;;;14.10;71.80;;;13.30;54.34;96426.84;5078297;28;20425;-76
2022/04/06 10:06:15;;;;;;;0.40;0.40;;;14.20;71.20;;;13.50;55.43;96425.69;5084760;28;20386;-77
2022/04/06 10:08:45;;;;;;;1.38;0.45;;;14.40;72.30;;;13.72;54.46;96423.16;5093272;28;20463;-76
2022/04/06 10:13:47;;;;;;;0.50;0.50;;;14.80;68.70;;;14.10;52.30;96426.44;5085952;28;20946;-79
2022/04/06 10:16:16;;;;;;;0.57;0.50;;;14.90;67.40;;;14.12;50.79;96416.28;5085679;28;20462;-75
2022/04/06 10:18:44;;;;;;;2.03;0.50;;;15.00;65.30;;;14.15;50.66;96407.69;5091388;28;20406;-80
2022/04/06 10:21:18;;;;;;;0.47;0.30;;;15.00;65.30;;;14.43;49.92;96411.16;5085728;28;20394;-81
2022/04/06 10:23:55;;;;;;;1.97;0.50;;;15.20;64.30;;;14.84;48.91;96403.03;5076652;28;20770;-80
2022/04/06 10:26:39;;;;;;;1.20;0.45;;;15.60;63.10;;;15.47;48.60;96391.38;5060019;28;21154;-80
2022/04/06 10:29:06;;;;;;;0.50;0.50;;;16.40;61.90;;;16.18;46.38;96400.13;5056699;28;20409;-81
2022/04/06 10:31:32;;;;;;;0.30;0.30;;;17.10;58.70;;;16.40;45.50;96399.22;5069643;28;20505;-82
2022/04/06 10:34:25;;;;;;;0.45;0.45;;;17.30;57.50;;;16.33;45.44;96391.69;5068746;28;20420;-81
2022/04/06 10:37:11;;;;;;;0.40;0.40;;;17.30;58.10;;;16.25;45.21;96384.44;5065096;28;20533;-81